Flight Track Log - Related Links

Times and Time Zones

All times are in EST time to prevent confusion due to time zone crossing. See the UPS1553 flight status page for this flight to view local times or setup timezone preferences in your user account.

Time Position Orientation Groundspeed Altitude Reporting Facility
EST Latitude Longitude Course Direction KTS MPH feet Rate Location/Type
Tue 12:29:42 PM 36.9364 -76.2778 247° West 167 192 900  Level Washington Center
Tue 12:30:54 PM 36.9928 -76.2525 20° North 249 287 5,700 4,190 Climbing Washington Center
Tue 12:32:41 PM 36.9733 -76.3900 260° West 261 300 13,400 3,714 Climbing Washington Center
Tue 12:33:00 PM 37.0199 -76.5526 270° West  Level Estimated
Tue 12:33:42 PM 36.9392 -76.4989 249° West 299 344 16,100  Level Washington Center
Tue 12:34:00 PM 37.0407 -76.6777 247° West  Level Estimated
Tue 12:34:43 PM 36.8944 -76.5997 241° Southwest 321 369 18,100  Level Washington Center
Tue 12:35:00 PM 37.0614 -76.8029 247° West  Level Estimated
Tue 12:35:43 PM 36.8497 -76.7003 241° Southwest 327 376 22,100  Level Washington Center
Tue 12:36:41 PM 36.8031 -76.8058 241° Southwest 339 390 25,700 3,328 Climbing Washington Center
Tue 12:37:42 PM 36.7558 -76.9167 242° Southwest 349 402 28,700 2,951 Climbing Washington Center
Tue 12:38:43 PM 36.7044 -77.0297 240° Southwest 355 409 31,700 1,636 Climbing Washington Center
Tue 12:39:43 PM 36.6572 -77.1325 240° Southwest 360 414 32,000 153 Climbing Washington Center
Tue 12:40:41 PM 36.6081 -77.2375 240° Southwest 355 409 32,000  Level Washington Center
Tue 12:41:41 PM 36.5586 -77.3425 240° Southwest 355 409 32,000 99 Level Washington Center
Tue 12:42:42 PM 36.5108 -77.4500 241° Southwest 355 409 32,200 942 Climbing Washington Center
Tue 12:43:42 PM 36.4592 -77.5572 239° Southwest 355 409 33,900 1,884 Climbing Washington Center
Tue 12:44:43 PM 36.4200 -77.6467 241° Southwest 355 409 36,000 2,033 Climbing Washington Center
Tue 12:45:43 PM 36.3725 -77.7458 239° Southwest 349 402 38,000 1,017 Climbing Washington Center
Tue 12:46:41 PM 36.3289 -77.8453 241° Southwest 343 395 38,000  Level Washington Center
Tue 12:47:41 PM 36.2792 -77.9444 238° Southwest 337 388 38,000  Level Washington Center
Tue 12:48:43 PM 36.2353 -78.0408 241° Southwest 327 376 38,000  Level Washington Center
Tue 12:49:43 PM 36.2081 -78.1481 253° West 327 376 38,000  Level Washington Center
Tue 12:50:41 PM 36.1911 -78.2583 259° West 327 376 38,000  Level Washington Center
Tue 12:51:42 PM 36.1719 -78.3683 258° West 332 382 38,000  Level Washington Center
Tue 12:52:42 PM 36.1547 -78.4758 259° West 332 382 38,000  Level Washington Center
Tue 12:53:43 PM 36.1375 -78.5858 259° West 332 382 38,000  Level Washington Center
Tue 12:54:41 PM 36.1181 -78.6956 258° West 332 382 38,000  Level Washington Center
Tue 12:55:41 PM 36.1003 -78.8081 259° West 332 382 38,000  Level Washington Center
Tue 12:56:42 PM 36.0828 -78.9153 259° West 332 382 38,000  Level Washington Center
Tue 12:57:42 PM 36.0631 -79.0247 257° West 332 382 38,000  Level Washington Center
Tue 12:58:43 PM 36.0453 -79.1319 258° West 332 382 38,000  Level Washington Center
Tue 12:59:41 PM 36.0253 -79.2442 258° West 332 382 38,000  Level Washington Center
Tue 01:02:11 PM 35.9753 -79.5228 258° West 325 374 38,000  Level Atlanta Center
Tue 01:03:11 PM 35.9689 -79.6336 266° West 325 374 38,000  Level Atlanta Center
Tue 01:04:11 PM 35.9914 -79.7400 285° West 325 374 38,000  Level Atlanta Center
Tue 01:05:11 PM 36.0161 -79.8544 285° West 331 381 38,000  Level Atlanta Center
Tue 01:06:11 PM 36.0386 -79.9611 285° West 331 381 38,000  Level Atlanta Center
Tue 01:07:11 PM 36.0583 -80.0603 284° West 337 388 38,000  Level Atlanta Center
Tue 01:08:11 PM 36.0808 -80.1722 284° West 337 388 38,000  Level Atlanta Center
Tue 01:09:11 PM 36.1031 -80.2842 284° West 337 388 38,000  Level Atlanta Center
Tue 01:10:11 PM 36.1208 -80.3939 281° West 337 388 38,000  Level Atlanta Center
Tue 01:11:11 PM 36.1433 -80.5189 283° West 337 388 38,000  Level Atlanta Center
Tue 01:12:11 PM 36.1653 -80.6283 284° West 337 388 38,000  Level Atlanta Center
Tue 01:13:11 PM 36.1850 -80.7381 283° West 332 382 38,000  Level Atlanta Center
Tue 01:14:11 PM 36.2067 -80.8481 284° West 332 382 38,000  Level Atlanta Center
Tue 01:15:11 PM 36.2278 -80.9475 285° West 332 382 38,000  Level Atlanta Center
Tue 01:16:11 PM 36.2472 -81.0575 282° West 332 382 38,000  Level Atlanta Center
Tue 01:17:11 PM 36.2667 -81.1675 282° West 332 382 38,000  Level Atlanta Center
Tue 01:18:11 PM 36.2881 -81.2775 284° West 332 382 38,000  Level Atlanta Center
Tue 01:19:11 PM 36.3092 -81.3875 283° West 332 382 38,000  Level Atlanta Center
Tue 01:20:11 PM 36.3261 -81.4953 281° West 332 382 38,000  Level Atlanta Center
Tue 01:21:11 PM 36.3469 -81.6081 283° West 337 388 38,000  Level Atlanta Center
Tue 01:22:11 PM 36.3658 -81.7208 282° West 337 388 38,000  Level Atlanta Center
Tue 01:23:11 PM 36.3847 -81.8339 282° West 337 388 38,000  Level Atlanta Center
Tue 01:24:11 PM 36.4056 -81.9544 282° West 337 388 38,000 -100 Level Atlanta Center
Tue 01:25:11 PM 36.4261 -82.0675 283° West 337 388 37,800 -600 Descending Atlanta Center
Tue 01:26:11 PM 36.4508 -82.1803 285° West 337 388 36,800 -1,000 Descending Atlanta Center
Tue 01:27:11 PM 36.4858 -82.2906 292° West 343 395 35,800 -1,150 Descending Atlanta Center
Tue 01:28:11 PM 36.5186 -82.3983 291° West 343 395 34,500 -1,012 Descending Atlanta Center
Tue 01:29:57 PM 36.5933 -82.5744 298° West 356 410 33,000 -536 Descending Indianapolis Center
Tue 01:30:59 PM 36.6519 -82.7019 300° West 362 417 33,000  Level Indianapolis Center
Tue 01:32:00 PM 36.7011 -82.8106 299° West 360 414 33,000  Level Indianapolis Center
Tue 01:33:02 PM 36.7519 -82.9200 300° West 360 414 33,000  Level Indianapolis Center
Tue 01:34:04 PM 36.8025 -83.0308 300° West 360 414 33,000 -146 Level Indianapolis Center
Tue 01:35:05 PM 36.8522 -83.1400 300° West 358 412 32,700 -634 Descending Indianapolis Center
Tue 01:36:07 PM 36.9031 -83.2517 300° West 363 418 31,700 -968 Descending Indianapolis Center
Tue 01:37:09 PM 36.9564 -83.3694 300° West 381 438 30,700 -829 Descending Indianapolis Center
Tue 01:38:10 PM 37.0094 -83.4881 299° West 388 447 30,000 -732 Descending Indianapolis Center
Tue 01:39:12 PM 37.0625 -83.6067 299° West 389 448 29,200 -1,073 Descending Indianapolis Center
Tue 01:40:13 PM 37.1161 -83.7247 300° West 389 448 27,800 -2,049 Descending Indianapolis Center
Tue 01:41:15 PM 37.1772 -83.8608 299° West 384 442 25,000 -2,565 Descending Indianapolis Center
Tue 01:42:17 PM 37.2278 -83.9772 299° West 381 438 22,500 -2,439 Descending Indianapolis Center
Tue 01:43:18 PM 37.2789 -84.0911 299° West 375 432 20,000 -2,244 Descending Indianapolis Center
Tue 01:44:20 PM 37.3267 -84.2019 298° West 365 420 17,900 -1,610 Descending Indianapolis Center
Tue 01:45:21 PM 37.3744 -84.3100 299° West 356 410 16,700 -1,122 Descending Indianapolis Center
Tue 01:46:23 PM 37.4214 -84.4181 299° West 353 406 15,600 -1,012 Descending Indianapolis Center
Tue 01:52:28 PM 37.7032 -85.0198 299° West 332 382 9,500 -859 Descending FlightAware ADS-B
Tue 01:53:29 PM 37.7851 -85.1341 312° West 333 383 9,500  Level FlightAware ADS-B
Tue 01:54:30 PM 37.8448 -85.2166 313° West 280 322 9,500 -397 Level FlightAware ADS-B
Tue 01:55:30 PM 37.8935 -85.2843 312° West 247 284 8,700 -950 Descending FlightAware ADS-B
Tue 01:56:30 PM 37.9396 -85.3483 312° West 256 295 7,600 -915 Descending FlightAware ADS-B
Tue 01:57:28 PM 37.9844 -85.4104 312° West 256 295 6,900 -655 Descending FlightAware ADS-B
Tue 01:58:29 PM 38.0345 -85.4816 312° West 254 292 6,300 -595 Descending FlightAware ADS-B
Tue 01:59:29 PM 38.0825 -85.5480 313° West 254 292 5,700 -403 Descending FlightAware ADS-B
Tue 02:00:28 PM 38.1396 -85.5938 328° Northwest 253 291 5,500 -99 Descending FlightAware ADS-B
Tue 02:01:30 PM 38.2052 -85.6270 338° Northwest 253 291 5,500 -850 Level FlightAware ADS-B
Tue 02:02:28 PM 38.2720 -85.6485 346° North 241 277 3,800 -1,008 Descending FlightAware ADS-B
Tue 02:03:29 PM 38.3327 -85.6707 344° North 219 252 3,500 -486 Descending FlightAware ADS-B
Tue 02:04:19 PM 38.3681 -85.7073 321° Northwest 212 244 2,900 -761 Descending FlightAware ADS-B
Tue 02:04:40 PM 38.3672 -85.7326 267° West 181 208 2,600 68 Descending FlightAware ADS-B
Tue 02:05:47 PM 38.3333 -85.7833 267° West 177 204 3,000 178 Climbing Louisville TRACON
Tue 02:06:55 PM 38.2997 -85.7869 185° South 181 208 3,000 -277 Level Indianapolis Center
Tue 02:07:57 PM 38.2578 -85.7719 164° South 166 191 2,400 -581 Descending Indianapolis Center

Login

Don't have an account? Register now (free) for customized features, flight alerts, and more!